Aviation Digital Data Service (ADDS)

Output produced by METARs form (1214 UTC 19 November 2017)
found at http://aviationweather.gov/adds/metars/
 
KTYR 191153Z AUTO 00000KT 10SM CLR 04/02 A3029 RMK AO2 SLP256 T00390017 10078 20039 53007